createdAt,value
2017-11-12T00:01:30.462Z,4.90
2017-11-12T00:03:58.020Z,4.47
2017-11-12T00:06:26.354Z,4.93
2017-11-12T00:08:53.879Z,5.75
2017-11-12T00:11:21.426Z,5.72
2017-11-12T00:13:48.959Z,3.83
2017-11-12T00:16:17.289Z,4.50
2017-11-12T00:18:44.836Z,3.10
2017-11-12T00:21:12.399Z,2.90
2017-11-12T00:23:39.964Z,2.20
2017-11-12T00:26:07.506Z,2.80
2017-11-12T00:28:35.070Z,2.60
2017-11-12T00:31:02.602Z,2.72
2017-11-12T00:33:30.927Z,3.30
2017-11-12T00:35:58.477Z,2.95
2017-11-12T00:38:26.014Z,4.03
2017-11-12T00:40:54.342Z,3.92
2017-11-12T00:43:21.877Z,3.67
2017-11-12T00:45:49.418Z,3.40
2017-11-12T00:48:16.955Z,4.20
2017-11-12T00:50:44.505Z,4.15
2017-11-12T00:53:12.053Z,3.72
2017-11-12T00:55:39.595Z,4.37
2017-11-12T00:58:07.118Z,4.50
2017-11-12T01:00:34.675Z,4.47
2017-11-12T01:03:02.212Z,4.70
2017-11-12T01:05:29.747Z,4.32
2017-11-12T01:07:57.558Z,7.25
2017-11-12T01:10:25.094Z,6.05
2017-11-12T01:12:53.410Z,4.18
2017-11-12T01:15:20.943Z,4.30
2017-11-12T01:17:48.510Z,4.37
2017-11-12T01:20:16.042Z,3.30
2017-11-12T01:22:44.365Z,4.68
2017-11-12T01:25:11.920Z,2.92
2017-11-12T01:27:39.466Z,4.05
2017-11-12T01:30:06.997Z,3.35
2017-11-12T01:32:35.290Z,3.62
2017-11-12T01:35:02.847Z,3.53
2017-11-12T01:37:31.141Z,3.92
2017-11-12T01:39:58.699Z,3.53
2017-11-12T01:42:26.250Z,3.70
2017-11-12T01:44:53.811Z,4.07
2017-11-12T01:47:21.355Z,3.60
2017-11-12T01:49:49.700Z,3.30
2017-11-12T01:52:17.244Z,4.07
2017-11-12T01:54:44.766Z,3.95
2017-11-12T01:57:12.312Z,3.80
2017-11-12T01:59:39.853Z,4.03
2017-11-12T02:02:07.429Z,3.53
2017-11-12T02:04:34.965Z,3.80
2017-11-12T02:07:02.526Z,4.00
2017-11-12T02:09:30.059Z,4.43
2017-11-12T02:11:57.614Z,4.28
2017-11-12T02:14:25.146Z,4.72
2017-11-12T02:16:52.710Z,4.47
2017-11-12T02:19:20.274Z,5.55
2017-11-12T02:21:47.843Z,4.70
2017-11-12T02:24:15.389Z,3.80
2017-11-12T02:26:42.921Z,4.50
2017-11-12T02:29:10.488Z,4.32
2017-11-12T02:31:38.049Z,4.35
2017-11-12T02:34:05.594Z,4.35
2017-11-12T02:36:33.167Z,3.78
2017-11-12T02:39:00.731Z,4.03
2017-11-12T02:41:28.303Z,4.37
2017-11-12T02:43:55.862Z,4.72
2017-11-12T02:46:23.423Z,4.25
2017-11-12T02:48:50.967Z,4.90
2017-11-12T02:51:18.548Z,4.22
2017-11-12T02:53:46.080Z,4.62
2017-11-12T02:56:13.693Z,3.90
2017-11-12T02:58:41.226Z,5.53
2017-11-12T03:01:08.807Z,3.92
2017-11-12T03:03:37.110Z,4.70
2017-11-12T03:06:04.641Z,5.25
2017-11-12T03:08:32.199Z,5.35
2017-11-12T03:11:00.513Z,5.30
2017-11-12T03:13:28.072Z,5.68
2017-11-12T03:15:55.606Z,4.72
2017-11-12T03:18:23.513Z,6.45
2017-11-12T03:20:51.056Z,5.70
2017-11-12T03:23:18.575Z,4.95
2017-11-12T03:25:46.915Z,4.75
2017-11-12T03:28:14.445Z,5.87
2017-11-12T03:30:42.011Z,5.32
2017-11-12T03:33:09.576Z,6.00
2017-11-12T03:35:37.122Z,5.70
2017-11-12T03:38:04.670Z,5.85
2017-11-12T03:40:32.199Z,5.97
2017-11-12T03:43:01.260Z,6.40
2017-11-12T03:45:28.811Z,6.15
2017-11-12T03:47:56.341Z,6.35
2017-11-12T03:50:24.650Z,7.93
2017-11-12T03:52:52.181Z,7.53
2017-11-12T03:55:19.739Z,8.40
2017-11-12T03:57:47.271Z,8.80
2017-11-12T04:00:14.862Z,9.07
2017-11-12T04:02:42.442Z,7.72
2017-11-12T04:05:09.981Z,8.05
2017-11-12T04:07:37.543Z,6.85
2017-11-12T04:10:05.127Z,9.00
2017-11-12T04:12:33.417Z,8.80
2017-11-12T04:15:01.750Z,8.85
2017-11-12T04:17:29.326Z,7.20
2017-11-12T04:19:56.864Z,8.30
2017-11-12T04:22:24.398Z,7.70
2017-11-12T04:24:51.946Z,7.90
2017-11-12T04:27:20.259Z,7.05
2017-11-12T04:29:47.791Z,6.03
2017-11-12T04:32:15.347Z,8.45
2017-11-12T04:34:42.895Z,7.65
2017-11-12T04:37:11.191Z,7.72
2017-11-12T04:39:38.751Z,7.75
2017-11-12T04:42:06.299Z,8.80
2017-11-12T04:44:33.851Z,9.18
2017-11-12T04:47:02.181Z,8.68
2017-11-12T04:49:29.717Z,8.50
2017-11-12T04:51:57.280Z,10.00
2017-11-12T04:54:24.821Z,9.00
2017-11-12T04:56:52.376Z,9.77
2017-11-12T04:59:20.697Z,8.73
2017-11-12T05:01:48.250Z,8.90
2017-11-12T05:04:15.796Z,9.60
2017-11-12T05:06:43.374Z,8.35
2017-11-12T05:09:10.930Z,8.75
2017-11-12T05:11:38.501Z,8.30
2017-11-12T05:14:06.058Z,7.18
2017-11-12T05:16:33.593Z,8.63
2017-11-12T05:19:01.151Z,8.70
2017-11-12T05:21:28.723Z,8.48
2017-11-12T05:23:56.262Z,10.05
2017-11-12T05:26:23.826Z,11.40
2017-11-12T05:28:51.363Z,9.73
2017-11-12T05:31:19.686Z,11.12
2017-11-12T05:33:47.224Z,10.25
2017-11-12T05:36:14.774Z,10.00
2017-11-12T05:38:42.325Z,9.50
2017-11-12T05:41:10.651Z,9.27
2017-11-12T05:43:38.179Z,7.35
2017-11-12T05:46:05.739Z,7.80
2017-11-12T05:48:33.299Z,6.93
2017-11-12T05:51:00.854Z,7.28
2017-11-12T05:53:28.415Z,6.43
2017-11-12T05:55:55.941Z,7.07
2017-11-12T05:58:23.495Z,6.65
2017-11-12T06:00:51.018Z,7.18
2017-11-12T06:03:18.587Z,6.40
2017-11-12T06:05:46.130Z,6.82
2017-11-12T06:08:13.679Z,8.07
2017-11-12T06:10:41.222Z,8.07
2017-11-12T06:13:08.775Z,8.75
2017-11-12T06:15:36.318Z,9.15
2017-11-12T06:18:03.986Z,9.15
2017-11-12T06:20:31.548Z,8.68
2017-11-12T06:22:59.131Z,8.77
2017-11-12T06:25:26.674Z,7.85
2017-11-12T06:27:54.221Z,9.20
2017-11-12T06:30:21.759Z,7.40
2017-11-12T06:32:49.327Z,8.60
2017-11-12T06:35:16.873Z,9.32
2017-11-12T06:37:44.430Z,8.13
2017-11-12T06:40:12.731Z,7.90
2017-11-12T06:42:40.340Z,8.05
2017-11-12T06:45:07.868Z,6.90
2017-11-12T06:47:35.404Z,6.90
2017-11-12T06:50:02.975Z,8.25
2017-11-12T06:52:30.525Z,9.50
2017-11-12T06:54:58.090Z,10.13
2017-11-12T06:57:25.660Z,11.45
2017-11-12T06:59:53.213Z,10.38
2017-11-12T07:02:20.775Z,11.10
2017-11-12T07:04:48.324Z,9.45
2017-11-12T07:07:15.854Z,8.82
2017-11-12T07:09:44.181Z,8.68
2017-11-12T07:12:11.715Z,8.40
2017-11-12T07:14:39.298Z,10.15
2017-11-12T07:17:06.896Z,8.20
2017-11-12T07:19:35.954Z,8.05
2017-11-12T07:22:03.495Z,8.75
2017-11-12T07:24:31.055Z,8.82
2017-11-12T07:26:58.612Z,8.82
2017-11-12T07:29:26.195Z,9.15
2017-11-12T07:31:53.748Z,8.57
2017-11-12T07:34:21.282Z,9.68
2017-11-12T07:36:48.827Z,9.05
2017-11-12T07:39:17.175Z,9.13
2017-11-12T07:41:45.687Z,11.40
2017-11-12T07:44:14.023Z,9.50
2017-11-12T07:46:41.582Z,11.88
2017-11-12T07:49:09.121Z,9.65
2017-11-12T07:51:36.653Z,8.75
2017-11-12T07:54:04.963Z,10.68
2017-11-12T07:56:32.506Z,8.07
2017-11-12T07:59:00.103Z,8.32
2017-11-12T08:01:27.655Z,8.23
2017-11-12T08:03:55.184Z,7.35
2017-11-12T08:06:22.729Z,7.97
2017-11-12T08:08:50.287Z,9.45
2017-11-12T08:11:17.839Z,8.43
2017-11-12T08:13:46.165Z,9.35
2017-11-12T08:16:13.694Z,8.07
2017-11-12T08:18:41.250Z,7.50
2017-11-12T08:21:09.078Z,6.60
2017-11-12T08:23:36.602Z,7.95
2017-11-12T08:26:04.167Z,7.60
2017-11-12T08:28:31.702Z,6.55
2017-11-12T08:30:59.250Z,7.22
2017-11-12T08:33:26.798Z,6.30
2017-11-12T08:35:54.332Z,7.40
2017-11-12T08:38:21.887Z,5.03
2017-11-12T08:40:50.231Z,6.07
2017-11-12T08:43:17.764Z,6.15
2017-11-12T08:45:45.363Z,6.15
2017-11-12T08:48:13.662Z,5.57
2017-11-12T08:50:41.209Z,5.95
2017-11-12T08:53:09.513Z,4.40
2017-11-12T08:55:37.058Z,5.70
2017-11-12T08:58:04.631Z,5.95
2017-11-12T09:00:32.225Z,5.20
2017-11-12T09:02:59.779Z,5.95
2017-11-12T09:05:27.318Z,5.70
2017-11-12T09:07:54.904Z,6.25
2017-11-12T09:10:22.439Z,4.50
2017-11-12T09:12:49.994Z,6.25
2017-11-12T09:15:17.527Z,6.20
2017-11-12T09:17:45.066Z,6.15
2017-11-12T09:20:13.394Z,6.93
2017-11-12T09:22:40.935Z,6.35
2017-11-12T09:25:08.484Z,5.75
2017-11-12T09:27:36.019Z,6.90
2017-11-12T09:30:03.626Z,7.00
2017-11-12T09:32:31.178Z,7.25
2017-11-12T09:34:58.726Z,7.53
2017-11-12T09:37:26.280Z,6.53
2017-11-12T09:39:54.605Z,6.53
2017-11-12T09:42:22.172Z,5.78
2017-11-12T09:44:49.738Z,6.57
2017-11-12T09:47:17.286Z,7.75
2017-11-12T09:49:44.811Z,7.15
2017-11-12T09:52:12.368Z,7.00
2017-11-12T09:54:39.906Z,5.47
2017-11-12T09:57:08.217Z,6.07
2017-11-12T09:59:35.782Z,4.57
2017-11-12T10:02:03.330Z,5.40
2017-11-12T10:04:30.886Z,4.03
2017-11-12T10:06:59.268Z,4.37
2017-11-12T10:09:26.846Z,4.10
2017-11-12T10:11:54.382Z,2.75
2017-11-12T10:14:22.699Z,3.20
2017-11-12T10:16:50.231Z,3.08
2017-11-12T10:19:17.795Z,3.15
2017-11-12T10:21:45.328Z,2.67
2017-11-12T10:24:13.659Z,3.22
2017-11-12T10:26:41.306Z,2.92
2017-11-12T10:29:08.894Z,2.60
2017-11-12T10:31:36.465Z,2.72
2017-11-12T10:34:03.996Z,2.72
2017-11-12T10:36:31.558Z,2.75
2017-11-12T10:38:59.103Z,3.17
2017-11-12T10:41:26.759Z,1.70
2017-11-12T10:43:54.295Z,5.07
2017-11-12T10:46:22.618Z,2.80
2017-11-12T10:48:50.144Z,2.12
2017-11-12T10:51:17.711Z,2.35
2017-11-12T10:53:45.239Z,2.40
2017-11-12T10:56:13.599Z,4.05
2017-11-12T10:58:41.150Z,2.30
2017-11-12T11:01:08.693Z,1.90
2017-11-12T11:03:36.242Z,2.03
2017-11-12T11:06:03.805Z,1.48
2017-11-12T11:08:31.359Z,1.55
2017-11-12T11:10:58.894Z,1.30
2017-11-12T11:13:26.527Z,1.30
2017-11-12T11:15:54.830Z,1.30
2017-11-12T11:18:22.398Z,0.85
2017-11-12T11:20:49.992Z,0.75
2017-11-12T11:23:17.534Z,0.73
2017-11-12T11:25:45.106Z,0.73
2017-11-12T11:28:12.664Z,0.62
2017-11-12T11:30:40.220Z,0.57
2017-11-12T11:33:07.761Z,0.70
2017-11-12T11:35:35.318Z,0.50
2017-11-12T11:38:02.848Z,0.65
2017-11-12T11:40:31.178Z,0.60
2017-11-12T11:42:58.750Z,0.40
2017-11-12T11:45:26.309Z,0.40
2017-11-12T11:47:53.853Z,0.40
2017-11-12T11:50:21.405Z,0.68
2017-11-12T11:52:48.958Z,0.60
2017-11-12T11:55:16.500Z,0.50
2017-11-12T11:57:44.059Z,0.40
2017-11-12T12:00:12.370Z,1.25
2017-11-12T12:02:39.942Z,0.40
2017-11-12T12:05:07.476Z,0.45
2017-11-12T12:07:35.030Z,0.43
2017-11-12T12:10:02.563Z,1.23
2017-11-12T12:12:30.937Z,0.45
2017-11-12T12:14:59.253Z,0.55
2017-11-12T12:17:26.814Z,0.60
2017-11-12T12:19:54.367Z,0.50
2017-11-12T12:22:21.898Z,0.60
2017-11-12T12:24:50.327Z,0.50
2017-11-12T12:27:17.853Z,0.60
2017-11-12T12:29:45.452Z,0.40
2017-11-12T12:32:13.002Z,0.60
2017-11-12T12:34:40.538Z,0.60
2017-11-12T12:37:08.102Z,0.60
2017-11-12T12:39:35.639Z,0.50
2017-11-12T12:42:03.948Z,0.60
2017-11-12T12:44:31.487Z,0.70
2017-11-12T12:46:59.795Z,0.70
2017-11-12T12:49:27.332Z,0.70
2017-11-12T12:51:54.914Z,0.70
2017-11-12T12:54:22.439Z,0.60
2017-11-12T12:56:50.743Z,0.90
2017-11-12T12:59:18.310Z,1.00
2017-11-12T13:01:45.858Z,0.88
2017-11-12T13:04:13.416Z,1.10
2017-11-12T13:06:40.979Z,1.15
2017-11-12T13:09:08.511Z,0.80
2017-11-12T13:11:36.834Z,0.90
2017-11-12T13:14:04.408Z,0.60
2017-11-12T13:16:31.974Z,0.82
2017-11-12T13:18:59.550Z,0.80
2017-11-12T13:21:27.138Z,0.70
2017-11-12T13:23:55.475Z,0.82
2017-11-12T13:26:23.010Z,0.80
2017-11-12T13:28:50.557Z,0.80
2017-11-12T13:31:18.097Z,0.90
2017-11-12T13:33:46.451Z,0.88
2017-11-12T13:36:14.802Z,0.80
2017-11-12T13:38:42.342Z,0.90
2017-11-12T13:41:09.902Z,0.70
2017-11-12T13:43:37.461Z,0.75
2017-11-12T13:46:05.011Z,0.60
2017-11-12T13:48:32.546Z,0.70
2017-11-12T13:51:00.896Z,0.85
2017-11-12T13:53:28.433Z,0.70
2017-11-12T13:55:55.998Z,0.65
2017-11-12T13:58:23.543Z,0.60
2017-11-12T14:00:51.096Z,0.75
2017-11-12T14:03:18.656Z,0.70
2017-11-12T14:05:46.211Z,0.70
2017-11-12T14:08:13.750Z,1.08
2017-11-12T14:10:41.307Z,1.40
2017-11-12T14:13:09.594Z,0.90
2017-11-12T14:15:37.118Z,0.90
2017-11-12T14:18:04.682Z,0.70
2017-11-12T14:20:32.235Z,0.98
2017-11-12T14:22:59.790Z,1.30
2017-11-12T14:25:27.339Z,1.40
2017-11-12T14:27:54.907Z,1.37
2017-11-12T14:30:22.454Z,1.30
2017-11-12T14:32:50.006Z,1.40
2017-11-12T14:35:17.550Z,0.93
2017-11-12T14:37:45.087Z,1.00
2017-11-12T14:40:12.627Z,0.82
2017-11-12T14:42:40.983Z,1.70
2017-11-12T14:45:08.563Z,1.50
2017-11-12T14:47:36.872Z,0.98
2017-11-12T14:50:04.425Z,1.08
2017-11-12T14:52:31.953Z,1.40
2017-11-12T14:54:59.498Z,2.37
2017-11-12T14:57:27.062Z,1.50
2017-11-12T14:59:54.622Z,2.05
2017-11-12T15:02:22.172Z,1.70
2017-11-12T15:04:49.736Z,1.90
2017-11-12T15:07:17.319Z,2.60
2017-11-12T15:09:44.876Z,2.92
2017-11-12T15:12:12.423Z,2.90
2017-11-12T15:14:40.760Z,2.25
2017-11-12T15:17:08.298Z,2.90
2017-11-12T15:19:35.857Z,3.78
2017-11-12T15:22:03.391Z,4.68
2017-11-12T15:24:31.711Z,4.10
2017-11-12T15:26:59.252Z,4.15
2017-11-12T15:29:26.819Z,3.85
2017-11-12T15:31:54.367Z,4.12
2017-11-12T15:34:21.933Z,4.40
2017-11-12T15:36:49.494Z,3.97
2017-11-12T15:39:17.075Z,5.43
2017-11-12T15:41:44.644Z,4.80
2017-11-12T15:44:13.684Z,5.20
2017-11-12T15:46:41.237Z,3.58
2017-11-12T15:49:08.791Z,3.87
2017-11-12T15:51:36.387Z,3.47
2017-11-12T15:54:03.916Z,4.45
2017-11-12T15:56:31.498Z,3.75
2017-11-12T15:58:59.031Z,3.35
2017-11-12T16:01:27.322Z,3.80
2017-11-12T16:03:54.917Z,4.53
2017-11-12T16:06:22.459Z,5.65
2017-11-12T16:08:50.795Z,4.82
2017-11-12T16:11:18.323Z,4.30
2017-11-12T16:13:46.030Z,4.00
2017-11-12T16:16:13.562Z,3.62
2017-11-12T16:18:41.126Z,4.40
2017-11-12T16:21:08.673Z,4.37
2017-11-12T16:23:36.209Z,3.78
2017-11-12T16:26:03.805Z,3.92
2017-11-12T16:28:31.343Z,3.35
2017-11-12T16:30:58.903Z,4.10
2017-11-12T16:33:26.439Z,3.10
2017-11-12T16:35:54.782Z,3.33
2017-11-12T16:38:22.325Z,4.05
2017-11-12T16:40:49.880Z,3.78
2017-11-12T16:43:17.419Z,3.53
2017-11-12T16:45:44.991Z,3.83
2017-11-12T16:48:12.554Z,2.95
2017-11-12T16:50:40.122Z,5.05
2017-11-12T16:53:07.678Z,3.58
2017-11-12T16:55:35.220Z,3.65
2017-11-12T16:58:02.787Z,4.25
2017-11-12T17:00:30.321Z,3.47
2017-11-12T17:02:57.882Z,3.60
2017-11-12T17:05:26.227Z,3.70
2017-11-12T17:07:53.796Z,4.10
2017-11-12T17:10:21.341Z,2.60
2017-11-12T17:12:48.918Z,3.60
2017-11-12T17:15:16.455Z,2.67
2017-11-12T17:17:43.999Z,2.62
2017-11-12T17:20:11.522Z,3.25
2017-11-12T17:22:39.068Z,2.15
2017-11-12T17:25:06.639Z,2.12
2017-11-12T17:27:34.202Z,3.30
2017-11-12T17:30:01.762Z,5.12
2017-11-12T17:32:29.318Z,2.80
2017-11-12T17:34:56.879Z,2.67
2017-11-12T17:37:24.418Z,2.33
2017-11-12T17:39:52.766Z,1.90
2017-11-12T17:42:20.300Z,1.60
2017-11-12T17:44:47.850Z,2.42
2017-11-12T17:47:15.409Z,2.10
2017-11-12T17:49:42.959Z,2.95
2017-11-12T17:52:10.512Z,1.83
2017-11-12T17:54:38.836Z,2.80
2017-11-12T17:57:06.398Z,2.35
2017-11-12T17:59:33.928Z,3.00
2017-11-12T18:02:01.475Z,2.72
2017-11-12T18:04:29.017Z,2.62
2017-11-12T18:06:57.355Z,2.90
2017-11-12T18:09:24.887Z,3.65
2017-11-12T18:11:52.438Z,2.90
2017-11-12T18:14:19.999Z,3.25
2017-11-12T18:16:48.194Z,3.15
2017-11-12T18:19:15.759Z,2.80
2017-11-12T18:21:43.297Z,2.67
2017-11-12T18:24:10.868Z,2.75
2017-11-12T18:26:38.398Z,4.35
2017-11-12T18:29:05.951Z,2.80
2017-11-12T18:31:34.273Z,2.60
2017-11-12T18:34:01.827Z,3.45
2017-11-12T18:36:29.380Z,3.65
2017-11-12T18:38:56.958Z,3.47
2017-11-12T18:41:24.508Z,2.95
2017-11-12T18:43:52.053Z,2.72
2017-11-12T18:46:19.606Z,2.47
2017-11-12T18:48:47.183Z,3.08
2017-11-12T18:51:15.236Z,3.35
2017-11-12T18:53:42.843Z,2.55
2017-11-12T19:09:42.757Z,2.80
2017-11-12T19:12:11.755Z,4.18
2017-11-12T19:14:39.316Z,3.20
2017-11-12T19:17:07.741Z,4.55
2017-11-12T19:19:55.006Z,4.03
2017-11-12T19:22:25.071Z,3.70
2017-11-12T19:24:53.555Z,3.62
2017-11-12T19:27:23.035Z,3.55
2017-11-12T19:29:50.582Z,3.45
2017-11-12T19:32:18.136Z,3.67
2017-11-12T19:34:45.683Z,4.72
2017-11-12T19:37:13.427Z,3.60
2017-11-12T19:39:41.120Z,3.92
2017-11-12T19:42:08.669Z,3.90
2017-11-12T19:44:36.221Z,3.12
2017-11-12T19:47:03.763Z,2.20
2017-11-12T19:49:31.322Z,2.65
2017-11-12T19:51:58.880Z,3.05
2017-11-12T19:54:26.477Z,2.60
2017-11-12T19:56:54.018Z,3.15
2017-11-12T19:59:21.773Z,4.62
2017-11-12T20:01:49.320Z,4.62
2017-11-12T20:04:16.888Z,4.55
2017-11-12T20:06:44.448Z,5.07
2017-11-12T20:09:11.993Z,4.53
2017-11-12T20:11:39.589Z,3.65
2017-11-12T20:14:07.135Z,3.62
2017-11-12T20:16:34.696Z,3.60
2017-11-12T20:19:02.458Z,2.90
2017-11-12T20:21:30.018Z,3.70
2017-11-12T20:23:57.618Z,4.07
2017-11-12T20:26:25.157Z,3.15
2017-11-12T20:28:52.711Z,3.97
2017-11-12T20:31:20.246Z,4.40
2017-11-12T20:33:47.794Z,6.97
2017-11-12T20:36:15.378Z,4.37
2017-11-12T20:38:42.924Z,3.45
2017-11-12T20:41:10.454Z,4.00
2017-11-12T20:43:38.782Z,2.95
2017-11-12T20:46:06.444Z,2.72
2017-11-12T20:48:34.031Z,4.15
2017-11-12T20:51:12.450Z,3.70
2017-11-12T20:53:40.008Z,4.87
2017-11-12T20:56:07.542Z,4.82
2017-11-12T20:58:38.702Z,3.60
2017-11-12T21:01:06.853Z,3.45
2017-11-12T21:03:34.611Z,4.05
2017-11-12T21:06:04.712Z,5.15
2017-11-12T21:08:32.269Z,4.05
2017-11-12T21:10:59.820Z,4.97
2017-11-12T21:13:27.393Z,2.83
2017-11-12T21:15:55.811Z,3.92
2017-11-12T21:18:24.975Z,3.37
2017-11-12T21:21:09.860Z,2.28
2017-11-12T21:23:38.266Z,2.92
2017-11-12T21:26:05.828Z,3.72
2017-11-12T21:28:37.557Z,3.17
2017-11-12T21:31:22.659Z,5.50
2017-11-12T21:33:55.253Z,4.28
2017-11-12T21:36:26.120Z,3.55
2017-11-12T21:38:53.687Z,4.85
2017-11-12T21:41:21.264Z,3.87
2017-11-12T21:43:48.870Z,4.35
2017-11-12T21:46:17.231Z,4.75
2017-11-12T21:48:44.798Z,4.22
2017-11-12T21:51:12.371Z,3.35
2017-11-12T21:53:39.903Z,5.45
2017-11-12T21:56:07.463Z,4.37
2017-11-12T21:58:35.000Z,5.62
2017-11-12T22:01:02.563Z,4.03
2017-11-12T22:03:30.110Z,4.85
2017-11-12T22:05:57.647Z,4.35
2017-11-12T22:08:25.963Z,4.10
2017-11-12T22:10:53.490Z,4.95
2017-11-12T22:13:21.797Z,3.53
2017-11-12T22:15:49.369Z,3.53
2017-11-12T22:18:16.905Z,3.03
2017-11-12T22:20:44.475Z,10.93
2017-11-12T22:23:12.034Z,4.30
2017-11-12T22:25:39.563Z,7.30
2017-11-12T22:28:07.866Z,4.72
2017-11-12T22:30:35.425Z,3.45
2017-11-12T22:33:02.992Z,4.95
2017-11-12T22:35:30.521Z,4.47
2017-11-12T22:37:58.116Z,4.93
2017-11-12T22:40:25.655Z,4.40
2017-11-12T22:42:53.204Z,4.32
2017-11-12T22:45:20.782Z,4.30
2017-11-12T22:47:48.314Z,4.10
2017-11-12T22:50:16.645Z,4.72
2017-11-12T22:52:44.169Z,4.70
2017-11-12T22:55:11.701Z,4.65
2017-11-12T22:57:40.039Z,4.40
2017-11-12T23:00:07.626Z,4.75
2017-11-12T23:02:35.162Z,4.70
2017-11-12T23:05:02.714Z,4.65
2017-11-12T23:07:30.269Z,4.97
2017-11-12T23:09:57.811Z,3.42
2017-11-12T23:12:25.376Z,5.05
2017-11-12T23:14:52.936Z,4.65
2017-11-12T23:17:20.467Z,3.92
2017-11-12T23:19:48.798Z,4.85
2017-11-12T23:22:16.328Z,3.92
2017-11-12T23:24:43.900Z,4.45
2017-11-12T23:27:11.429Z,3.80
2017-11-12T23:29:39.744Z,4.30
2017-11-12T23:32:07.295Z,3.37
2017-11-12T23:34:34.825Z,3.28
2017-11-12T23:37:03.142Z,3.80
2017-11-12T23:39:30.697Z,4.18
2017-11-12T23:41:58.246Z,3.90
2017-11-12T23:44:25.786Z,3.80
2017-11-12T23:46:53.343Z,3.95
2017-11-12T23:49:20.871Z,4.35
2017-11-12T23:51:48.414Z,3.95
2017-11-12T23:54:15.945Z,3.92
2017-11-12T23:56:43.515Z,4.32
2017-11-12T23:59:11.075Z,3.90
